createdAt,value
2018-02-04T00:01:53.852Z,91.80
2018-02-04T00:04:21.280Z,91.80
2018-02-04T00:06:48.721Z,91.80
2018-02-04T00:09:16.144Z,91.80
2018-02-04T00:11:43.600Z,91.30
2018-02-04T00:14:11.040Z,91.90
2018-02-04T00:16:38.495Z,91.70
2018-02-04T00:19:05.942Z,91.50
2018-02-04T00:21:33.372Z,91.70
2018-02-04T00:24:01.602Z,92.00
2018-02-04T00:26:29.073Z,91.90
2018-02-04T00:28:56.493Z,92.20
2018-02-04T00:31:23.939Z,92.30
2018-02-04T00:33:51.360Z,92.30
2018-02-04T00:36:18.800Z,92.10
2018-02-04T00:38:46.208Z,91.70
2018-02-04T00:41:13.664Z,91.70
2018-02-04T00:43:41.107Z,91.70
2018-02-04T00:46:09.324Z,91.50
2018-02-04T00:48:36.805Z,91.50
2018-02-04T00:51:04.249Z,91.80
2018-02-04T00:53:31.677Z,91.30
2018-02-04T00:56:00.101Z,91.30
2018-02-04T00:58:27.543Z,91.00
2018-02-04T01:00:54.984Z,90.90
2018-02-04T01:03:22.421Z,91.30
2018-02-04T01:05:49.856Z,91.20
2018-02-04T01:08:18.069Z,90.80
2018-02-04T01:10:45.505Z,90.80
2018-02-04T01:13:12.941Z,90.50
2018-02-04T01:15:40.377Z,90.60
2018-02-04T01:18:07.803Z,90.00
2018-02-04T01:20:35.246Z,89.50
2018-02-04T01:23:02.671Z,90.00
2018-02-04T01:25:30.103Z,90.00
2018-02-04T01:27:57.638Z,90.30
2018-02-04T01:30:25.084Z,90.00
2018-02-04T01:32:52.510Z,90.10
2018-02-04T01:35:20.725Z,89.10
2018-02-04T01:37:48.522Z,89.20
2018-02-04T01:40:15.963Z,89.40
2018-02-04T01:42:43.413Z,90.00
2018-02-04T01:45:10.817Z,88.50
2018-02-04T01:47:39.020Z,88.80
2018-02-04T01:50:06.443Z,88.80
2018-02-04T01:52:33.897Z,88.80
2018-02-04T01:55:01.325Z,87.60
2018-02-04T01:57:28.772Z,87.50
2018-02-04T01:59:56.214Z,88.20
2018-02-04T02:02:23.641Z,86.90
2018-02-04T02:04:51.895Z,85.80
2018-02-04T02:07:19.325Z,85.70
2018-02-04T02:09:46.774Z,85.50
2018-02-04T02:12:14.208Z,86.10
2018-02-04T02:14:41.632Z,86.00
2018-02-04T02:17:09.065Z,85.70
2018-02-04T02:19:36.494Z,85.40
2018-02-04T02:22:03.920Z,85.00
2018-02-04T02:24:32.151Z,84.80
2018-02-04T02:26:59.584Z,84.70
2018-02-04T02:29:27.017Z,84.10
2018-02-04T02:31:55.227Z,84.30
2018-02-04T02:34:22.669Z,84.20
2018-02-04T02:36:50.097Z,85.10
2018-02-04T02:39:18.311Z,84.50
2018-02-04T02:41:45.758Z,84.30
2018-02-04T02:44:13.228Z,84.20
2018-02-04T02:46:40.652Z,84.10
2018-02-04T02:49:08.857Z,84.30
2018-02-04T02:51:36.292Z,84.30
2018-02-04T02:54:03.727Z,83.80
2018-02-04T02:56:31.950Z,85.10
2018-02-04T02:58:59.357Z,84.60
2018-02-04T03:01:27.556Z,84.00
2018-02-04T03:03:54.988Z,83.60
2018-02-04T03:06:23.227Z,84.70
2018-02-04T03:08:51.280Z,84.60
2018-02-04T03:11:18.712Z,84.10
2018-02-04T03:13:46.133Z,83.90
2018-02-04T03:16:13.573Z,83.90
2018-02-04T03:18:41.056Z,84.00
2018-02-04T03:21:08.507Z,83.40
2018-02-04T03:23:35.948Z,83.20
2018-02-04T03:26:03.420Z,82.70
2018-02-04T03:28:30.849Z,83.30
2018-02-04T03:30:58.276Z,81.60
2018-02-04T03:33:26.460Z,82.20
2018-02-04T03:35:53.884Z,82.20
2018-02-04T03:38:21.322Z,83.30
2018-02-04T03:40:48.741Z,82.70
2018-02-04T03:43:16.200Z,82.20
2018-02-04T03:45:43.636Z,81.50
2018-02-04T03:48:11.063Z,81.60
2018-02-04T03:50:38.487Z,81.90
2018-02-04T03:53:05.916Z,82.10
2018-02-04T03:55:33.348Z,81.90
2018-02-04T03:58:01.565Z,81.80
2018-02-04T04:00:28.985Z,81.80
2018-02-04T04:02:57.183Z,82.30
2018-02-04T04:05:24.623Z,82.30
2018-02-04T04:07:52.064Z,82.40
2018-02-04T04:10:19.497Z,82.70
2018-02-04T04:12:46.913Z,81.90
2018-02-04T04:15:14.333Z,82.00
2018-02-04T04:17:42.534Z,83.40
2018-02-04T04:20:09.968Z,83.30
2018-02-04T04:22:38.174Z,82.40
2018-02-04T04:25:05.618Z,82.30
2018-02-04T04:27:33.836Z,81.40
2018-02-04T04:30:01.249Z,81.40
2018-02-04T04:32:28.684Z,80.60
2018-02-04T04:34:56.888Z,80.40
2018-02-04T04:37:24.336Z,79.40
2018-02-04T04:39:52.779Z,79.10
2018-02-04T04:42:20.224Z,79.40
2018-02-04T04:44:48.576Z,78.80
2018-02-04T04:47:16.004Z,78.70
2018-02-04T04:49:44.211Z,78.90
2018-02-04T04:52:11.655Z,78.90
2018-02-04T04:54:39.084Z,79.00
2018-02-04T04:57:07.285Z,79.40
2018-02-04T04:59:34.732Z,79.30
2018-02-04T05:02:03.866Z,78.40
2018-02-04T05:04:31.288Z,78.40
2018-02-04T05:06:58.709Z,78.60
2018-02-04T05:09:26.156Z,77.80
2018-02-04T05:11:53.585Z,77.90
2018-02-04T05:14:21.017Z,78.00
2018-02-04T05:16:48.820Z,78.10
2018-02-04T05:19:16.268Z,78.30
2018-02-04T05:21:43.716Z,78.50
2018-02-04T05:24:11.167Z,78.10
2018-02-04T05:26:38.609Z,76.80
2018-02-04T05:29:06.820Z,76.60
2018-02-04T05:31:34.271Z,76.60
2018-02-04T05:34:01.712Z,76.20
2018-02-04T05:36:29.163Z,76.20
2018-02-04T05:38:56.628Z,77.00
2018-02-04T05:41:24.086Z,78.00
2018-02-04T05:43:52.276Z,78.50
2018-02-04T05:46:19.728Z,78.40
2018-02-04T05:48:47.153Z,78.50
2018-02-04T05:51:15.363Z,78.70
2018-02-04T05:53:42.798Z,78.50
2018-02-04T05:56:11.099Z,78.20
2018-02-04T05:58:38.511Z,78.20
2018-02-04T06:01:06.709Z,77.70
2018-02-04T06:03:34.138Z,77.60
2018-02-04T06:06:01.572Z,78.60
2018-02-04T06:08:29.018Z,77.60
2018-02-04T06:10:56.438Z,77.20
2018-02-04T06:13:23.899Z,77.10
2018-02-04T06:15:52.092Z,77.30
2018-02-04T06:18:19.542Z,77.30
2018-02-04T06:20:46.974Z,77.00
2018-02-04T06:23:15.184Z,77.70
2018-02-04T06:25:42.603Z,77.60
2018-02-04T06:28:10.799Z,76.60
2018-02-04T06:30:38.236Z,76.50
2018-02-04T06:33:06.450Z,76.70
2018-02-04T06:35:33.882Z,76.70
2018-02-04T06:38:01.313Z,76.30
2018-02-04T06:40:29.523Z,76.50
2018-02-04T06:42:56.950Z,76.00
2018-02-04T06:45:25.160Z,75.90
2018-02-04T06:47:52.589Z,75.90
2018-02-04T06:50:20.787Z,75.80
2018-02-04T06:52:48.940Z,75.80
2018-02-04T06:55:17.149Z,75.20
2018-02-04T06:57:45.596Z,75.20
2018-02-04T07:00:13.802Z,76.10
2018-02-04T07:02:41.243Z,76.10
2018-02-04T07:05:08.669Z,75.00
2018-02-04T07:07:36.106Z,75.70
2018-02-04T07:10:03.568Z,76.10
2018-02-04T07:12:31.045Z,76.00
2018-02-04T07:14:58.488Z,76.60
2018-02-04T07:17:25.953Z,76.30
2018-02-04T07:19:53.377Z,75.30
2018-02-04T07:22:20.900Z,75.20
2018-02-04T07:24:49.800Z,76.40
2018-02-04T07:27:17.311Z,76.30
2018-02-04T07:29:44.756Z,76.30
2018-02-04T07:32:12.192Z,77.00
2018-02-04T07:34:39.620Z,76.60
2018-02-04T07:37:07.049Z,76.40
2018-02-04T07:39:34.508Z,76.30
2018-02-04T07:42:01.938Z,77.40
2018-02-04T07:44:29.411Z,77.80
2018-02-04T07:46:56.829Z,77.80
2018-02-04T07:49:24.256Z,77.20
2018-02-04T07:51:52.461Z,77.00
2018-02-04T07:54:19.924Z,77.00
2018-02-04T07:56:47.357Z,78.10
2018-02-04T07:59:14.805Z,78.50
2018-02-04T08:01:42.996Z,78.00
2018-02-04T08:04:10.460Z,78.00
2018-02-04T08:06:38.205Z,78.80
2018-02-04T08:09:05.717Z,78.40
2018-02-04T08:11:33.155Z,77.90
2018-02-04T08:14:00.576Z,77.10
2018-02-04T08:16:28.005Z,76.90
2018-02-04T08:18:55.432Z,76.30
2018-02-04T08:21:22.887Z,75.80
2018-02-04T08:23:50.332Z,75.50
2018-02-04T08:26:17.748Z,75.70
2018-02-04T08:28:45.948Z,76.20
2018-02-04T08:31:13.378Z,76.20
2018-02-04T08:33:40.804Z,75.70
2018-02-04T08:36:08.232Z,76.80
2018-02-04T08:38:35.676Z,76.40
2018-02-04T08:41:03.110Z,76.10
2018-02-04T08:43:31.321Z,75.90
2018-02-04T08:45:58.743Z,75.80
2018-02-04T08:48:26.936Z,75.90
2018-02-04T08:50:54.376Z,75.80
2018-02-04T08:53:22.572Z,76.50
2018-02-04T08:55:50.012Z,76.40
2018-02-04T08:58:18.200Z,78.80
2018-02-04T09:00:45.648Z,78.80
2018-02-04T09:03:13.836Z,81.90
2018-02-04T09:05:41.288Z,81.90
2018-02-04T09:08:08.712Z,83.10
2018-02-04T09:10:36.171Z,83.90
2018-02-04T09:13:03.611Z,86.10
2018-02-04T09:15:31.077Z,86.20
2018-02-04T09:17:58.500Z,87.70
2018-02-04T09:20:25.948Z,88.80
2018-02-04T09:22:53.365Z,90.10
2018-02-04T09:25:20.809Z,90.50
2018-02-04T09:27:49.158Z,90.80
2018-02-04T09:30:16.594Z,90.90
2018-02-04T09:32:44.016Z,91.00
2018-02-04T09:35:12.213Z,91.10
2018-02-04T09:37:39.640Z,91.10
2018-02-04T09:40:07.069Z,91.50
2018-02-04T09:42:34.635Z,91.50
2018-02-04T09:45:02.103Z,91.50
2018-02-04T09:47:29.562Z,92.20
2018-02-04T09:49:56.993Z,91.70
2018-02-04T09:52:24.428Z,91.40
2018-02-04T09:54:51.868Z,91.40
2018-02-04T09:57:20.085Z,91.20
2018-02-04T09:59:47.516Z,91.20
2018-02-04T10:02:15.011Z,91.10
2018-02-04T10:04:42.455Z,91.00
2018-02-04T10:07:09.898Z,91.10
2018-02-04T10:09:37.320Z,91.10
2018-02-04T10:12:05.512Z,90.90
2018-02-04T10:14:32.938Z,90.80
2018-02-04T10:17:00.376Z,90.50
2018-02-04T10:19:27.821Z,90.60
2018-02-04T10:21:55.238Z,90.30
2018-02-04T10:24:23.448Z,87.90
2018-02-04T10:26:50.881Z,87.80
2018-02-04T10:29:18.308Z,83.20
2018-02-04T10:31:46.512Z,78.70
2018-02-04T10:34:13.945Z,78.10
2018-02-04T10:36:42.140Z,81.20
2018-02-04T10:39:09.574Z,81.20
2018-02-04T10:41:37.771Z,82.40
2018-02-04T10:44:05.219Z,82.30
2018-02-04T10:46:33.429Z,82.50
2018-02-04T10:49:00.842Z,82.40
2018-02-04T10:51:34.671Z,82.90
2018-02-04T10:54:02.108Z,82.80
2018-02-04T10:56:30.314Z,82.80
2018-02-04T10:58:57.746Z,82.70
2018-02-04T11:01:25.952Z,77.60
2018-02-04T11:03:53.386Z,77.60
2018-02-04T11:06:21.705Z,75.10
2018-02-04T11:08:50.140Z,75.70
2018-02-04T11:11:18.355Z,77.20
2018-02-04T11:13:45.816Z,77.20
2018-02-04T11:16:13.241Z,76.90
2018-02-04T11:18:41.431Z,77.70
2018-02-04T11:21:08.855Z,77.60
2018-02-04T11:23:37.075Z,83.10
2018-02-04T11:26:04.511Z,83.00
2018-02-04T11:28:31.954Z,76.50
2018-02-04T11:31:00.150Z,60.30
2018-02-04T11:33:27.585Z,60.10
2018-02-04T11:35:55.020Z,51.90
2018-02-04T11:38:22.458Z,46.50
2018-02-04T11:40:49.896Z,44.40
2018-02-04T11:43:17.369Z,40.70
2018-02-04T11:45:44.812Z,38.00
2018-02-04T11:48:12.268Z,36.50
2018-02-04T11:50:39.703Z,36.90
2018-02-04T11:53:07.138Z,39.80
2018-02-04T11:55:35.344Z,45.10
2018-02-04T11:58:02.781Z,45.10
2018-02-04T12:00:30.248Z,50.30
2018-02-04T12:02:58.774Z,57.10
2018-02-04T12:05:26.985Z,58.60
2018-02-04T12:07:55.182Z,61.30
2018-02-04T12:10:22.621Z,61.20
2018-02-04T12:12:50.820Z,66.00
2018-02-04T12:15:18.245Z,66.00
2018-02-04T12:17:46.465Z,71.00
2018-02-04T12:20:13.892Z,71.70
2018-02-04T12:22:41.328Z,71.30
2018-02-04T12:25:09.546Z,73.10
2018-02-04T12:27:37.677Z,73.20
2018-02-04T12:30:05.111Z,73.80
2018-02-04T12:32:32.569Z,75.00
2018-02-04T12:35:00.021Z,76.20
2018-02-04T12:37:28.273Z,76.70
2018-02-04T12:39:55.716Z,75.90
2018-02-04T12:42:23.170Z,71.40
2018-02-04T12:44:51.385Z,73.00
2018-02-04T12:47:18.821Z,72.90
2018-02-04T12:49:46.288Z,74.50
2018-02-04T12:52:13.723Z,77.50
2018-02-04T12:54:41.160Z,76.00
2018-02-04T12:57:09.353Z,78.40
2018-02-04T12:59:37.332Z,78.40
2018-02-04T13:02:04.777Z,77.20
2018-02-04T13:04:32.220Z,76.20
2018-02-04T13:07:00.410Z,77.40
2018-02-04T13:09:27.850Z,77.40
2018-02-04T13:11:56.079Z,77.10
2018-02-04T13:14:23.485Z,77.00
2018-02-04T13:16:51.701Z,77.10
2018-02-04T13:19:19.145Z,77.10
2018-02-04T13:21:46.587Z,78.00
2018-02-04T13:24:14.026Z,78.20
2018-02-04T13:26:42.230Z,80.20
2018-02-04T13:29:09.670Z,80.20
2018-02-04T13:31:37.104Z,77.80
2018-02-04T13:34:05.321Z,76.00
2018-02-04T13:36:32.736Z,75.90
2018-02-04T13:39:00.361Z,74.40
2018-02-04T13:41:27.801Z,69.80
2018-02-04T13:43:55.243Z,67.00
2018-02-04T13:46:22.669Z,66.80
2018-02-04T13:48:50.924Z,67.00
2018-02-04T13:51:18.360Z,66.90
2018-02-04T13:53:45.796Z,66.00
2018-02-04T13:56:13.262Z,68.40
2018-02-04T13:58:40.694Z,70.70
2018-02-04T14:01:08.924Z,70.30
2018-02-04T14:03:36.321Z,70.10
2018-02-04T14:06:04.513Z,70.30
2018-02-04T14:08:31.987Z,70.30
2018-02-04T14:10:59.424Z,70.70
2018-02-04T14:13:26.860Z,70.90
2018-02-04T14:15:55.060Z,71.50
2018-02-04T14:18:23.396Z,71.50
2018-02-04T14:20:51.035Z,73.00
2018-02-04T14:23:18.498Z,74.60
2018-02-04T14:25:45.922Z,75.00
2018-02-04T14:28:14.743Z,74.30
2018-02-04T14:30:42.938Z,74.90
2018-02-04T14:33:10.379Z,77.00
2018-02-04T14:35:37.800Z,77.10
2018-02-04T14:38:05.234Z,77.10
2018-02-04T14:40:33.447Z,74.10
2018-02-04T14:43:00.867Z,74.10
2018-02-04T14:45:29.071Z,74.60
2018-02-04T14:47:57.504Z,74.50
2018-02-04T14:50:24.953Z,75.70
2018-02-04T14:52:52.372Z,77.40
2018-02-04T14:55:19.811Z,78.10
2018-02-04T14:57:47.274Z,77.60
2018-02-04T15:00:15.557Z,78.10
2018-02-04T15:02:42.984Z,76.70
2018-02-04T15:05:11.204Z,77.70
2018-02-04T15:07:38.631Z,77.70
2018-02-04T15:10:06.211Z,77.00
2018-02-04T15:12:33.624Z,77.20
2018-02-04T15:15:01.849Z,76.30
2018-02-04T15:17:29.289Z,76.20
2018-02-04T15:19:56.720Z,76.80
2018-02-04T15:22:26.776Z,78.20
2018-02-04T15:24:54.201Z,77.40
2018-02-04T15:27:23.179Z,75.70
2018-02-04T15:29:50.625Z,75.70
2018-02-04T15:32:18.070Z,76.90
2018-02-04T15:34:45.530Z,76.40
2018-02-04T15:37:12.942Z,76.80
2018-02-04T15:39:40.437Z,77.50
2018-02-04T15:42:07.874Z,78.50
2018-02-04T15:44:35.296Z,78.10
2018-02-04T15:47:03.513Z,79.50
2018-02-04T15:49:30.963Z,79.40
2018-02-04T15:51:58.401Z,79.80
2018-02-04T15:54:25.906Z,78.90
2018-02-04T15:56:53.380Z,80.00
2018-02-04T15:59:20.812Z,79.70
2018-02-04T16:01:48.257Z,78.70
2018-02-04T16:04:15.696Z,80.20
2018-02-04T16:06:43.164Z,80.30
2018-02-04T16:09:10.636Z,79.10
2018-02-04T16:11:38.062Z,78.60
2018-02-04T16:14:05.543Z,80.20
2018-02-04T16:16:32.983Z,79.50
2018-02-04T16:19:00.407Z,79.90
2018-02-04T16:21:28.651Z,80.10
2018-02-04T16:23:56.572Z,80.00
2018-02-04T16:26:24.057Z,79.50
2018-02-04T16:28:51.481Z,80.70
2018-02-04T16:31:19.741Z,80.80
2018-02-04T16:33:47.183Z,81.50
2018-02-04T16:36:14.590Z,80.40
2018-02-04T16:38:42.019Z,80.90
2018-02-04T16:41:10.220Z,81.60
2018-02-04T16:43:37.651Z,81.60
2018-02-04T16:46:05.849Z,80.50
2018-02-04T16:48:33.325Z,80.40
2018-02-04T16:51:00.752Z,80.40
2018-02-04T16:53:28.956Z,82.10
2018-02-04T16:55:56.390Z,82.10
2018-02-04T16:58:23.814Z,81.70
2018-02-04T17:00:51.252Z,81.20
2018-02-04T17:03:18.723Z,81.80
2018-02-04T17:05:46.161Z,81.70
2018-02-04T17:08:13.984Z,80.80
2018-02-04T17:10:42.341Z,81.30
2018-02-04T17:13:09.832Z,81.20
2018-02-04T17:15:37.269Z,81.00
2018-02-04T17:18:05.480Z,80.60
2018-02-04T17:20:32.921Z,80.50
2018-02-04T17:23:00.356Z,80.90
2018-02-04T17:25:28.601Z,81.60
2018-02-04T17:27:56.057Z,81.60
2018-02-04T17:30:23.539Z,81.30
2018-02-04T17:32:50.955Z,81.80
2018-02-04T17:35:19.173Z,81.80
2018-02-04T17:37:46.637Z,83.20
2018-02-04T17:40:14.364Z,83.20
2018-02-04T17:42:41.826Z,82.40
2018-02-04T17:45:09.341Z,82.20
2018-02-04T17:47:36.769Z,82.30
2018-02-04T17:50:04.993Z,83.50
2018-02-04T17:52:32.471Z,83.50
2018-02-04T17:55:00.651Z,84.70
2018-02-04T17:57:28.119Z,84.60
2018-02-04T17:59:55.593Z,84.60
2018-02-04T18:02:23.047Z,85.60
2018-02-04T18:04:50.473Z,85.50
2018-02-04T18:07:18.045Z,86.10
2018-02-04T18:09:45.489Z,86.50
2018-02-04T18:12:12.936Z,86.90
2018-02-04T18:14:40.412Z,86.90
2018-02-04T18:17:07.860Z,86.60
2018-02-04T18:19:35.312Z,87.60
2018-02-04T18:22:02.757Z,88.70
2018-02-04T18:24:30.217Z,88.70
2018-02-04T18:26:57.669Z,88.10
2018-02-04T18:29:25.105Z,88.40
2018-02-04T18:31:53.314Z,89.10
2018-02-04T18:34:20.760Z,89.10
2018-02-04T18:36:48.192Z,88.80
2018-02-04T18:39:16.406Z,89.80
2018-02-04T18:41:43.862Z,89.70
2018-02-04T18:44:11.296Z,90.10
2018-02-04T18:46:38.737Z,89.60
2018-02-04T18:49:06.961Z,89.60
2018-02-04T18:51:34.376Z,89.50
2018-02-04T18:54:01.813Z,89.60
2018-02-04T18:56:30.022Z,89.80
2018-02-04T18:58:57.496Z,89.80
2018-02-04T19:01:24.933Z,90.10
2018-02-04T19:03:52.387Z,90.40
2018-02-04T19:06:19.862Z,90.30
2018-02-04T19:08:47.297Z,90.30
2018-02-04T19:11:14.754Z,90.60
2018-02-04T19:13:42.947Z,90.70
2018-02-04T19:16:10.365Z,90.70
2018-02-04T19:18:37.784Z,91.00
2018-02-04T19:21:05.228Z,90.60
2018-02-04T19:23:32.662Z,91.00
2018-02-04T19:26:00.865Z,90.90
2018-02-04T19:28:28.307Z,90.90
2018-02-04T19:30:55.784Z,90.90
2018-02-04T19:33:23.213Z,90.90
2018-02-04T19:35:50.692Z,91.20
2018-02-04T19:38:18.164Z,91.20
2018-02-04T19:40:45.576Z,91.30
2018-02-04T19:43:13.774Z,91.40
2018-02-04T19:45:41.240Z,91.40
2018-02-04T19:48:08.663Z,91.30
2018-02-04T19:50:36.879Z,91.00
2018-02-04T19:53:04.338Z,91.00
2018-02-04T19:55:31.753Z,91.20
2018-02-04T19:57:59.980Z,90.70
2018-02-04T20:00:27.460Z,90.70
2018-02-04T20:02:54.886Z,90.70
2018-02-04T20:05:22.312Z,90.70
2018-02-04T20:07:50.324Z,90.80
2018-02-04T20:10:17.768Z,91.10
2018-02-04T20:12:45.241Z,90.70
2018-02-04T20:15:12.708Z,90.50
2018-02-04T20:17:40.160Z,90.80
2018-02-04T20:20:07.614Z,90.80
2018-02-04T20:22:35.060Z,90.70
2018-02-04T20:25:02.518Z,90.60
2018-02-04T20:27:29.944Z,90.70
2018-02-04T20:29:57.440Z,90.20
2018-02-04T20:35:23.957Z,90.20
2018-02-04T20:37:51.398Z,90.20
2018-02-04T20:40:18.815Z,90.80
2018-02-04T20:42:46.351Z,91.00
2018-02-04T20:45:14.509Z,90.50
2018-02-04T20:47:41.956Z,90.70
2018-02-04T20:50:09.389Z,90.70
2018-02-04T20:52:36.841Z,90.70
2018-02-04T20:55:04.281Z,90.60
2018-02-04T20:57:31.813Z,91.00
2018-02-04T20:59:59.290Z,90.10
2018-02-04T21:02:26.736Z,90.10
2018-02-04T21:04:54.185Z,90.20
2018-02-04T21:07:21.684Z,90.60
2018-02-04T21:09:49.134Z,90.50
2018-02-04T21:12:16.577Z,90.50
2018-02-04T21:14:44.009Z,90.30
2018-02-04T21:17:11.538Z,90.70
2018-02-04T21:19:39.733Z,90.50
2018-02-04T21:22:07.181Z,90.50
2018-02-04T21:24:35.376Z,90.40
2018-02-04T21:27:02.834Z,90.40
2018-02-04T21:29:30.266Z,90.50
2018-02-04T21:31:58.488Z,90.50
2018-02-04T21:34:25.929Z,90.50
2018-02-04T21:36:53.356Z,90.70
2018-02-04T21:39:21.560Z,90.70
2018-02-04T21:41:49.049Z,90.70
2018-02-04T21:44:16.478Z,90.70
2018-02-04T21:46:43.897Z,90.60
2018-02-04T21:49:12.146Z,91.10
2018-02-04T21:51:39.578Z,91.00
2018-02-04T21:54:07.026Z,91.00
2018-02-04T21:56:34.508Z,91.00
2018-02-04T21:59:01.969Z,91.30
2018-02-04T22:01:29.401Z,91.50
2018-02-04T22:03:56.864Z,91.70
2018-02-04T22:06:24.304Z,91.70
2018-02-04T22:08:51.741Z,91.90
2018-02-04T22:11:19.984Z,92.10
2018-02-04T22:13:47.450Z,92.10
2018-02-04T22:16:14.888Z,92.00
2018-02-04T22:21:16.197Z,92.00
2018-02-04T22:23:44.396Z,92.00
2018-02-04T22:26:11.828Z,92.00
2018-02-04T22:28:40.038Z,91.90
2018-02-04T22:31:07.481Z,91.90
2018-02-04T22:33:34.936Z,92.00
2018-02-04T22:36:02.384Z,92.10
2018-02-04T22:38:29.823Z,92.20
2018-02-04T22:40:58.049Z,91.70
2018-02-04T22:43:25.476Z,91.70
2018-02-04T22:45:53.713Z,91.30
2018-02-04T22:48:21.146Z,91.30
2018-02-04T22:50:48.570Z,91.20
2018-02-04T22:53:16.023Z,91.00
2018-02-04T22:55:44.249Z,90.90
2018-02-04T22:58:11.696Z,90.80
2018-02-04T23:00:39.138Z,90.80
2018-02-04T23:03:06.616Z,91.10
2018-02-04T23:05:34.041Z,91.10
2018-02-04T23:08:01.486Z,91.30
2018-02-04T23:10:29.686Z,91.00
2018-02-04T23:12:57.118Z,91.00
2018-02-04T23:15:25.342Z,91.40
2018-02-04T23:17:53.725Z,91.30
2018-02-04T23:20:21.239Z,91.50
2018-02-04T23:22:48.620Z,91.40
2018-02-04T23:25:16.066Z,91.30
2018-02-04T23:27:43.504Z,91.60
2018-02-04T23:30:11.717Z,91.40
2018-02-04T23:32:39.148Z,91.40
2018-02-04T23:35:06.576Z,91.00
2018-02-04T23:37:34.791Z,91.80
2018-02-04T23:40:02.208Z,91.80
2018-02-04T23:42:30.469Z,91.70
2018-02-04T23:45:02.514Z,91.70
2018-02-04T23:47:29.948Z,91.70
2018-02-04T23:49:57.401Z,91.50
2018-02-04T23:52:24.824Z,91.10
2018-02-04T23:54:53.913Z,91.60
2018-02-04T23:57:21.353Z,91.60
2018-02-04T23:59:48.808Z,91.50
